createdAt,value
2023-05-19T00:01:45.401Z,7.32
2023-05-19T00:04:19.083Z,7.56
2023-05-19T00:07:02.912Z,7.11
2023-05-19T00:09:38.867Z,7.44
2023-05-19T00:12:08.617Z,7.41
2023-05-19T00:14:39.183Z,7.74
2023-05-19T00:17:11.363Z,7.27
2023-05-19T00:19:41.002Z,7.32
2023-05-19T00:22:11.108Z,7.52
2023-05-19T00:24:40.984Z,7.79
2023-05-19T00:27:12.355Z,7.72
2023-05-19T00:29:42.844Z,8.10
2023-05-19T00:32:13.666Z,8.26
2023-05-19T00:34:46.963Z,8.20
2023-05-19T00:37:21.119Z,8.22
2023-05-19T00:39:51.304Z,8.08
2023-05-19T00:42:21.852Z,7.76
2023-05-19T00:44:52.472Z,8.37
2023-05-19T00:47:23.151Z,7.67
2023-05-19T00:49:54.259Z,7.74
2023-05-19T00:52:24.067Z,8.29
2023-05-19T00:54:57.828Z,7.77
2023-05-19T00:57:28.572Z,8.33
2023-05-19T00:59:58.762Z,8.49
2023-05-19T01:02:31.136Z,7.85
2023-05-19T01:05:01.460Z,7.87
2023-05-19T01:07:32.413Z,8.30
2023-05-19T01:10:02.826Z,8.38
2023-05-19T01:12:32.260Z,8.06
2023-05-19T01:15:01.789Z,8.21
2023-05-19T01:17:55.514Z,8.22
2023-05-19T01:20:41.165Z,8.59
2023-05-19T01:23:24.910Z,8.01
2023-05-19T01:26:28.925Z,8.15
2023-05-19T01:29:27.969Z,8.40
2023-05-19T01:32:01.106Z,8.76
2023-05-19T01:34:40.746Z,8.57
2023-05-19T01:37:11.210Z,8.88
2023-05-19T01:39:49.532Z,8.45
2023-05-19T01:42:21.390Z,8.34
2023-05-19T01:44:54.864Z,8.39
2023-05-19T01:47:24.711Z,8.63
2023-05-19T01:49:54.813Z,8.38
2023-05-19T01:52:24.843Z,8.76
2023-05-19T01:54:54.828Z,8.65
2023-05-19T01:57:49.116Z,8.53
2023-05-19T02:00:37.071Z,8.58
2023-05-19T02:03:07.290Z,8.69
2023-05-19T02:06:00.820Z,8.55
2023-05-19T02:08:40.952Z,8.71
2023-05-19T02:11:39.050Z,8.08
2023-05-19T02:14:21.675Z,8.17
2023-05-19T02:16:53.320Z,8.40
2023-05-19T02:19:31.358Z,8.90
2023-05-19T02:22:01.497Z,8.95
2023-05-19T02:24:31.617Z,8.49
2023-05-19T02:27:01.573Z,8.40
2023-05-19T02:29:33.197Z,8.25
2023-05-19T02:32:04.889Z,8.78
2023-05-19T02:34:38.301Z,8.69
2023-05-19T02:37:09.074Z,8.17
2023-05-19T02:39:41.307Z,7.82
2023-05-19T02:42:16.570Z,7.88
2023-05-19T02:44:48.697Z,8.63
2023-05-19T02:47:19.302Z,8.27
2023-05-19T02:49:49.068Z,8.14
2023-05-19T02:52:19.844Z,7.98
2023-05-19T02:54:48.961Z,7.27
2023-05-19T02:57:21.045Z,7.98
2023-05-19T02:59:52.612Z,7.70
2023-05-19T03:02:22.235Z,7.21
2023-05-19T03:04:53.045Z,7.76
2023-05-19T03:07:25.834Z,7.86
2023-05-19T03:09:57.034Z,7.29
2023-05-19T03:12:28.870Z,7.28
2023-05-19T03:14:57.782Z,7.08
2023-05-19T03:17:38.065Z,7.52
2023-05-19T03:20:35.724Z,7.23
2023-05-19T03:23:05.246Z,7.65
2023-05-19T03:25:37.313Z,7.75
2023-05-19T03:28:08.433Z,7.75
2023-05-19T03:30:37.289Z,7.49
2023-05-19T03:33:21.383Z,7.83
2023-05-19T03:35:57.695Z,7.71
2023-05-19T03:38:29.725Z,7.41
2023-05-19T03:41:01.133Z,7.97
2023-05-19T03:43:33.505Z,7.72
2023-05-19T03:46:07.284Z,6.91
2023-05-19T03:48:47.400Z,7.64
2023-05-19T03:51:38.010Z,7.79
2023-05-19T03:54:23.347Z,7.39
2023-05-19T03:56:53.509Z,7.83
2023-05-19T03:59:24.225Z,8.28
2023-05-19T04:01:55.660Z,8.32
2023-05-19T04:04:26.146Z,8.37
2023-05-19T04:06:57.306Z,8.39
2023-05-19T04:09:27.085Z,8.38
2023-05-19T04:11:59.259Z,8.36
2023-05-19T04:14:30.239Z,8.47
2023-05-19T04:17:01.184Z,8.52
2023-05-19T04:19:32.758Z,8.54
2023-05-19T04:22:05.353Z,8.42
2023-05-19T04:24:35.978Z,8.52
2023-05-19T04:27:05.662Z,8.77
2023-05-19T04:29:36.706Z,8.73
2023-05-19T04:32:11.634Z,8.50
2023-05-19T04:34:41.490Z,8.46
2023-05-19T04:37:12.016Z,8.59
2023-05-19T04:39:47.639Z,8.69
2023-05-19T04:42:23.619Z,9.02
2023-05-19T04:44:59.421Z,8.04
2023-05-19T04:47:31.573Z,8.67
2023-05-19T04:50:02.014Z,8.30
2023-05-19T04:52:32.868Z,8.53
2023-05-19T04:55:04.814Z,8.52
2023-05-19T04:57:34.164Z,8.68
2023-05-19T05:00:05.544Z,8.92
2023-05-19T05:02:45.098Z,8.42
2023-05-19T05:05:22.012Z,8.71
2023-05-19T05:07:55.569Z,8.93
2023-05-19T05:10:32.097Z,8.77
2023-05-19T05:13:03.408Z,8.89
2023-05-19T05:15:35.732Z,8.70
2023-05-19T05:18:07.517Z,8.66
2023-05-19T05:20:38.147Z,8.88
2023-05-19T05:23:10.225Z,9.21
2023-05-19T05:25:46.605Z,9.06
2023-05-19T05:28:19.190Z,8.79
2023-05-19T05:30:51.498Z,8.93
2023-05-19T05:33:23.799Z,9.14
2023-05-19T05:35:54.405Z,9.01
2023-05-19T05:38:23.932Z,8.96
2023-05-19T05:40:59.873Z,9.39
2023-05-19T05:43:31.108Z,9.24
2023-05-19T05:46:08.834Z,9.27
2023-05-19T05:48:43.448Z,9.12
2023-05-19T05:51:19.686Z,9.05
2023-05-19T05:53:55.349Z,9.37
2023-05-19T05:56:35.583Z,8.79
2023-05-19T05:59:12.048Z,9.41
2023-05-19T06:01:43.360Z,9.17
2023-05-19T06:04:20.913Z,9.50
2023-05-19T06:06:50.073Z,9.19
2023-05-19T06:09:28.807Z,8.56
2023-05-19T06:12:33.360Z,9.10
2023-05-19T06:15:27.403Z,8.82
2023-05-19T06:18:10.054Z,9.24
2023-05-19T06:20:49.526Z,9.27
2023-05-19T06:23:25.558Z,9.72
2023-05-19T06:25:59.410Z,9.75
2023-05-19T06:28:32.496Z,9.79
2023-05-19T06:31:04.484Z,9.93
2023-05-19T06:33:56.647Z,9.72
2023-05-19T06:36:27.648Z,9.42
2023-05-19T06:39:02.519Z,9.09
2023-05-19T06:41:37.868Z,9.41
2023-05-19T06:44:12.058Z,9.47
2023-05-19T06:46:43.556Z,9.95
2023-05-19T06:49:19.289Z,9.80
2023-05-19T06:51:50.753Z,9.50
2023-05-19T06:54:23.920Z,10.13
2023-05-19T06:56:54.119Z,10.13
2023-05-19T06:59:24.350Z,9.97
2023-05-19T07:01:53.956Z,9.71
2023-05-19T07:04:28.577Z,9.88
2023-05-19T07:06:59.927Z,9.74
2023-05-19T07:09:29.098Z,9.59
2023-05-19T07:11:59.453Z,9.62
2023-05-19T07:14:31.525Z,10.11
2023-05-19T07:17:01.399Z,10.06
2023-05-19T07:19:33.156Z,10.30
2023-05-19T07:22:06.207Z,10.12
2023-05-19T07:24:37.332Z,9.81
2023-05-19T07:27:08.879Z,10.13
2023-05-19T07:29:38.154Z,10.15
2023-05-19T07:32:12.695Z,9.99
2023-05-19T07:34:49.309Z,10.68
2023-05-19T07:37:24.684Z,10.84
2023-05-19T07:39:53.769Z,10.61
2023-05-19T07:42:23.793Z,10.09
2023-05-19T07:44:53.190Z,10.32
2023-05-19T07:47:26.035Z,10.48
2023-05-19T07:49:57.407Z,9.97
2023-05-19T07:52:27.932Z,10.24
2023-05-19T07:54:57.526Z,10.33
2023-05-19T07:57:29.858Z,10.49
2023-05-19T08:00:00.117Z,10.38
2023-05-19T08:02:29.887Z,10.50
2023-05-19T08:04:59.574Z,10.31
2023-05-19T08:07:29.148Z,10.56
2023-05-19T08:10:01.732Z,10.67
2023-05-19T08:12:33.390Z,10.32
2023-05-19T08:15:03.941Z,10.43
2023-05-19T08:17:33.121Z,10.37
2023-05-19T08:20:09.599Z,10.46
2023-05-19T08:22:40.615Z,10.06
2023-05-19T08:25:13.585Z,10.21
2023-05-19T08:27:48.761Z,10.33
2023-05-19T08:30:20.623Z,10.23
2023-05-19T08:32:52.227Z,10.21
2023-05-19T08:35:23.713Z,10.45
2023-05-19T08:37:53.369Z,10.84
2023-05-19T08:40:29.156Z,10.94
2023-05-19T08:43:00.655Z,10.36
2023-05-19T08:45:31.345Z,10.55
2023-05-19T08:48:04.753Z,10.57
2023-05-19T08:50:48.754Z,10.55
2023-05-19T08:53:34.759Z,10.66
2023-05-19T08:56:18.235Z,10.55
2023-05-19T08:58:53.679Z,10.77
2023-05-19T09:01:25.250Z,10.56
2023-05-19T09:03:55.767Z,10.90
2023-05-19T09:06:28.866Z,10.98
2023-05-19T09:09:03.622Z,10.61
2023-05-19T09:11:33.855Z,10.49
2023-05-19T09:14:07.514Z,10.84
2023-05-19T09:16:37.496Z,10.75
2023-05-19T09:19:09.673Z,11.20
2023-05-19T09:21:42.215Z,10.99
2023-05-19T09:24:16.095Z,10.65
2023-05-19T09:26:48.705Z,10.67
2023-05-19T09:29:23.912Z,11.02
2023-05-19T09:31:55.548Z,10.98
2023-05-19T09:34:27.161Z,11.03
2023-05-19T09:36:59.487Z,10.53
2023-05-19T09:39:29.622Z,10.89
2023-05-19T09:41:59.914Z,10.85
2023-05-19T09:44:31.471Z,10.61
2023-05-19T09:47:01.943Z,10.99
2023-05-19T09:49:33.539Z,11.00
2023-05-19T09:52:05.439Z,10.66
2023-05-19T09:54:41.675Z,11.02
2023-05-19T09:57:17.030Z,10.91
2023-05-19T09:59:52.652Z,11.01
2023-05-19T10:02:26.291Z,10.80
2023-05-19T10:04:57.851Z,10.16
2023-05-19T10:07:31.249Z,10.02
2023-05-19T10:10:04.588Z,10.37
2023-05-19T10:12:34.013Z,10.87
2023-05-19T10:15:06.507Z,10.68
2023-05-19T10:17:37.186Z,10.92
2023-05-19T10:20:23.334Z,10.74
2023-05-19T10:22:57.634Z,10.59
2023-05-19T10:25:28.893Z,10.85
2023-05-19T10:28:09.458Z,10.78
2023-05-19T10:30:52.356Z,10.77
2023-05-19T10:33:26.989Z,11.00
2023-05-19T10:36:24.077Z,11.10
2023-05-19T10:39:23.557Z,10.85
2023-05-19T10:42:15.976Z,10.92
2023-05-19T10:45:05.189Z,10.66
2023-05-19T10:47:37.260Z,10.40
2023-05-19T10:50:11.778Z,10.47
2023-05-19T10:52:42.259Z,10.50
2023-05-19T10:55:20.796Z,10.81
2023-05-19T10:57:58.497Z,11.20
2023-05-19T11:00:32.095Z,11.05
2023-05-19T11:03:25.544Z,11.07
2023-05-19T11:06:21.849Z,10.97
2023-05-19T11:09:17.308Z,11.05
2023-05-19T11:11:50.069Z,10.37
2023-05-19T11:14:28.735Z,10.58
2023-05-19T11:17:02.998Z,10.54
2023-05-19T11:19:33.903Z,9.85
2023-05-19T11:22:17.006Z,10.86
2023-05-19T11:24:52.991Z,10.92
2023-05-19T11:27:35.435Z,10.77
2023-05-19T11:30:09.450Z,11.20
2023-05-19T11:32:45.392Z,11.29
2023-05-19T11:35:23.489Z,11.01
2023-05-19T11:37:55.767Z,11.00
2023-05-19T11:40:27.101Z,11.31
2023-05-19T11:42:58.405Z,10.96
2023-05-19T11:45:33.888Z,10.41
2023-05-19T11:48:06.419Z,10.37
2023-05-19T11:50:40.016Z,11.14
2023-05-19T11:53:18.157Z,11.34
2023-05-19T11:55:50.563Z,11.24
2023-05-19T11:58:29.923Z,11.47
2023-05-19T12:01:09.698Z,11.45
2023-05-19T12:03:41.411Z,11.29
2023-05-19T12:06:12.176Z,11.42
2023-05-19T12:08:45.172Z,11.32
2023-05-19T12:11:19.992Z,11.59
2023-05-19T12:13:52.910Z,11.47
2023-05-19T12:16:25.389Z,11.89
2023-05-19T12:18:57.727Z,11.56
2023-05-19T12:21:34.345Z,11.39
2023-05-19T12:24:05.650Z,11.63
2023-05-19T12:26:38.353Z,11.56
2023-05-19T12:29:10.102Z,11.66
2023-05-19T12:31:43.552Z,11.61
2023-05-19T12:34:20.708Z,11.72
2023-05-19T12:36:51.691Z,11.44
2023-05-19T12:39:24.972Z,11.55
2023-05-19T12:42:06.090Z,11.83
2023-05-19T12:44:53.035Z,11.83
2023-05-19T12:47:45.294Z,11.45
2023-05-19T12:50:21.548Z,11.07
2023-05-19T12:52:54.714Z,10.91
2023-05-19T12:55:25.805Z,11.03
2023-05-19T12:57:57.651Z,11.55
2023-05-19T13:00:33.222Z,11.00
2023-05-19T13:03:11.475Z,11.77
2023-05-19T13:05:48.667Z,11.41
2023-05-19T13:08:25.317Z,11.59
2023-05-19T13:10:57.041Z,11.25
2023-05-19T13:13:26.439Z,11.21
2023-05-19T13:15:56.664Z,11.20
2023-05-19T13:18:29.632Z,11.66
2023-05-19T13:21:02.582Z,11.74
2023-05-19T13:23:35.811Z,11.32
2023-05-19T13:26:06.003Z,10.85
2023-05-19T13:28:40.166Z,11.11
2023-05-19T13:31:13.221Z,11.54
2023-05-19T13:33:44.389Z,11.35
2023-05-19T13:36:22.653Z,11.17
2023-05-19T13:38:52.064Z,10.93
2023-05-19T13:41:30.740Z,11.37
2023-05-19T13:44:04.373Z,11.03
2023-05-19T13:46:44.675Z,11.62
2023-05-19T13:49:22.330Z,11.13
2023-05-19T13:51:53.049Z,11.01
2023-05-19T13:54:23.449Z,11.01
2023-05-19T13:56:57.028Z,11.27
2023-05-19T13:59:28.247Z,11.44
2023-05-19T14:01:59.619Z,10.86
2023-05-19T14:04:32.108Z,11.28
2023-05-19T14:07:09.691Z,11.36
2023-05-19T14:09:41.418Z,11.22
2023-05-19T14:12:13.372Z,10.83
2023-05-19T14:14:48.460Z,10.92
2023-05-19T14:17:20.985Z,10.69
2023-05-19T14:19:49.698Z,11.35
2023-05-19T14:22:36.923Z,10.73
2023-05-19T14:25:05.905Z,10.97
2023-05-19T14:27:37.715Z,10.95
2023-05-19T14:30:08.975Z,10.63
2023-05-19T14:32:39.770Z,10.40
2023-05-19T14:35:09.592Z,10.92
2023-05-19T14:37:41.777Z,10.57
2023-05-19T14:40:11.479Z,10.94
2023-05-19T14:42:50.499Z,10.98
2023-05-19T14:45:19.698Z,10.82
2023-05-19T14:47:49.210Z,10.71
2023-05-19T14:50:18.902Z,10.48
2023-05-19T14:52:47.740Z,10.47
2023-05-19T14:55:41.761Z,10.84
2023-05-19T14:58:26.895Z,10.42
2023-05-19T15:01:03.895Z,10.56
2023-05-19T15:03:34.026Z,10.93
2023-05-19T15:06:04.789Z,10.86
2023-05-19T15:08:33.386Z,10.58
2023-05-19T15:11:01.682Z,10.37
2023-05-19T15:13:35.491Z,10.55
2023-05-19T15:16:16.049Z,10.93
2023-05-19T15:18:45.485Z,10.68
2023-05-19T15:21:15.768Z,10.58
2023-05-19T15:24:03.086Z,10.29
2023-05-19T15:26:33.597Z,10.56
2023-05-19T15:29:03.214Z,10.57
2023-05-19T15:31:32.227Z,10.49
2023-05-19T15:34:21.229Z,10.64
2023-05-19T15:36:59.990Z,10.48
2023-05-19T15:39:28.816Z,10.42
2023-05-19T15:41:57.745Z,10.50
2023-05-19T15:44:29.038Z,10.34
2023-05-19T16:16:34.271Z,9.81
2023-05-19T16:48:18.236Z,9.07
2023-05-19T17:19:50.300Z,8.64
2023-05-19T17:52:34.355Z,8.67
2023-05-19T18:24:38.402Z,8.49
2023-05-19T18:55:51.517Z,6.86
2023-05-19T19:26:51.331Z,8.62
2023-05-19T19:29:22.535Z,9.54
2023-05-19T19:32:01.081Z,8.90
2023-05-19T20:03:18.724Z,8.14
2023-05-19T20:05:48.942Z,8.44
2023-05-19T20:08:18.060Z,9.32
2023-05-19T20:15:22.164Z,8.84
2023-05-19T20:18:12.033Z,8.95
2023-05-19T20:49:40.526Z,8.59
2023-05-19T21:21:51.736Z,8.18
2023-05-19T21:57:01.890Z,8.48
2023-05-19T22:00:06.051Z,8.26
2023-05-19T22:02:54.091Z,8.93
2023-05-19T22:05:59.495Z,8.85
2023-05-19T22:09:30.724Z,8.11
2023-05-19T22:12:42.735Z,8.88
2023-05-19T22:16:00.355Z,8.55
2023-05-19T22:18:41.835Z,8.91
2023-05-19T22:21:28.357Z,8.59
2023-05-19T22:24:09.532Z,9.04
2023-05-19T22:27:13.264Z,8.88
2023-05-19T22:29:53.498Z,8.76
2023-05-19T22:32:53.948Z,8.64
2023-05-19T22:36:29.874Z,8.71
2023-05-19T22:39:02.353Z,8.63
2023-05-19T22:42:01.994Z,8.58
2023-05-19T22:44:50.005Z,8.35
2023-05-19T22:47:30.252Z,8.83
2023-05-19T22:50:18.566Z,8.69
2023-05-19T22:52:57.973Z,8.39
2023-05-19T22:55:40.817Z,8.81
2023-05-19T22:58:33.174Z,8.90
2023-05-19T23:01:19.696Z,8.44
2023-05-19T23:04:33.334Z,8.34
2023-05-19T23:07:57.870Z,9.01
2023-05-19T23:10:48.332Z,8.34
2023-05-19T23:13:34.510Z,8.32
2023-05-19T23:16:29.733Z,8.70
2023-05-19T23:19:01.335Z,8.28
2023-05-19T23:22:06.530Z,8.61
2023-05-19T23:24:52.202Z,8.42
2023-05-19T23:27:41.265Z,8.69
2023-05-19T23:30:33.332Z,8.93
2023-05-19T23:33:21.135Z,8.91
2023-05-19T23:36:20.637Z,8.81
2023-05-19T23:38:58.303Z,8.61
2023-05-19T23:41:41.725Z,8.48
2023-05-19T23:44:36.901Z,8.68
2023-05-19T23:47:38.574Z,9.00
2023-05-19T23:50:40.210Z,8.83
2023-05-19T23:53:27.229Z,8.73
2023-05-19T23:56:02.241Z,8.69
2023-05-19T23:58:40.008Z,8.69
